LFBP/PUF METAR and TAF weather

Enter ICAO airport designator
Station Type Date Time Source
LFBP METAR 2019/12/12 09:00 UTC NOAA

LFBP 120900Z AUTO 23005KT 200V260 9999 -RA BKN030 OVC037 08/07 Q1014 NOSIG


Station Type Date Time Source
LFBP Decoded METAR 2019/12/12 09:00 UTC NOAA

Pau, France (LFBP) 43-23N 000-25W 185M
Dec 12, 2019 - 04:00 AM EST / 2019.12.12 0900 UTC
Wind: from the SW (230 degrees) at 6 MPH (5 KT) (direction variable):0
Visibility: greater than 7 mile(s):0
Sky conditions: overcast
Weather: light rain
Temperature: 46 F (8 C)
Dew Point: 44 F (7 C)
Relative Humidity: 93%
Pressure (altimeter): 29.94 in. Hg (1014 hPa)
ob: LFBP 120900Z AUTO 23005KT 200V260 9999 -RA BKN030 OVC037 08/07 Q1014 NOSIG
cycle: 9

Station Type Date Time Source
LFBP TAF 2019/12/12 06:21 UTC NOAA

TAF LFBP 120500Z 1206/1306 24010KT 8000 -RA BKN025 OVC040
TEMPO 1213/1306 27020G35KT 2000 +RA BKN005 OVC020 PROB40
TEMPO 1302/1306 27025G40KT

Example: see airport list